Time;durP1;ratioP1;P1;durP2;ratioP2;P2;SDS_P1;SDS_P2;PMS_P1;PMS_P2;Temp;Humidity;BMP_temperature;BMP_pressure;BME280_temperature;BME280_humidity;BME280_pressure;Samples;Min_cycle;Max_cycle;Signal;HPM_P1;HPM_P2
2023/06/27 00:00:20;;;;;;;9.13;2.20;;;;;;;-145.18;100.00;46652.59;5085473;28;20077;-60
2023/06/27 00:02:53;;;;;;;8.13;2.07;;;;;;;-145.18;100.00;46650.63;5085651;28;20074;-60
2023/06/27 00:05:18;;;;;;;11.20;2.37;;;;;;;-145.18;100.00;46648.69;5086681;28;20079;-60
2023/06/27 00:07:44;;;;;;;10.43;2.73;;;;;;;-145.18;100.00;46656.50;5072273;28;20020;-60
2023/06/27 00:10:10;;;;;;;11.47;2.20;;;;;;;-145.18;100.00;46654.53;5053612;28;20395;-60
2023/06/27 00:12:36;;;;;;;7.20;1.93;;;;;;;-145.18;100.00;46646.72;5071871;28;20092;-60
2023/06/27 00:15:05;;;;;;;7.17;2.20;;;;;;;-145.18;100.00;46650.63;5071808;28;20044;-60
2023/06/27 00:17:33;;;;;;;9.80;1.80;;;;;;;-145.18;100.00;46652.59;5073350;28;20031;-60
2023/06/27 00:19:59;;;;;;;5.97;1.90;;;;;;;-145.18;100.00;46646.72;5079056;28;20089;-60
2023/06/27 00:22:26;;;;;;;8.53;2.40;;;;;;;-145.18;100.00;46646.72;5091508;28;20027;-60
2023/06/27 00:24:52;;;;;;;6.23;1.90;;;;;;;-145.18;100.00;46648.69;5090963;28;20488;-60
2023/06/27 00:27:17;;;;;;;13.43;2.10;;;;;;;-145.18;100.00;46679.94;5091528;28;20023;-60
2023/06/27 00:29:43;;;;;;;4.30;1.90;;;;;;;-145.18;100.00;46644.78;5071306;28;20024;-60
2023/06/27 00:32:09;;;;;;;6.33;1.50;;;;;;;-145.18;100.00;46650.63;5089057;28;20048;-60
2023/06/27 00:34:34;;;;;;;7.13;2.20;;;;;;;-145.18;100.00;46646.72;5089893;28;20035;-60
2023/06/27 00:36:59;;;;;;;6.43;1.90;;;;;;;-145.18;100.00;46644.78;5090645;28;20540;-60
2023/06/27 00:39:25;;;;;;;7.40;1.77;;;;;;;-145.18;100.00;46646.72;5090178;28;20028;-60
2023/06/27 00:41:51;;;;;;;10.40;2.20;;;;;;;-145.18;100.00;46648.69;5080732;28;20046;-60
2023/06/27 00:44:17;;;;;;;7.77;2.63;;;;;;;-145.18;100.00;46648.69;5100279;28;20032;-60
2023/06/27 00:46:46;;;;;;;8.67;2.00;;;;;;;-145.18;100.00;46644.78;5065862;28;20103;-60
2023/06/27 00:49:11;;;;;;;8.67;2.80;;;;;;;-145.18;100.00;46660.41;5090337;28;20514;-60
2023/06/27 00:51:40;;;;;;;5.83;1.87;;;;;;;-145.18;100.00;46660.41;5075778;28;20029;-60
2023/06/27 00:54:06;;;;;;;10.60;2.67;;;;;;;-145.18;100.00;46660.41;5071385;28;20480;-60
2023/06/27 00:56:31;;;;;;;12.97;2.57;;;;;;;-145.18;100.00;46677.97;5071336;28;20035;-61
2023/06/27 00:58:59;;;;;;;6.63;1.93;;;;;;;-145.18;100.00;46660.41;5073539;28;20024;-60
2023/06/27 01:01:25;;;;;;;13.47;2.97;;;;;;;-145.18;100.00;46660.41;5088985;28;20028;-60
2023/06/27 01:03:51;;;;;;;7.60;2.40;;;;;;;-145.18;100.00;46677.97;5084958;28;20390;-60
2023/06/27 01:06:52;;;;;;;9.13;2.40;;;;;;;-145.18;100.00;46660.41;5075320;28;20399;-60
2023/06/27 01:09:36;;;;;;;13.67;3.37;;;;;;;-145.18;100.00;46677.97;5075350;28;20021;-60
2023/06/27 01:12:23;;;;;;;16.97;5.10;;;;;;;-145.18;100.00;46681.88;5063810;28;20024;-60
2023/06/27 01:14:50;;;;;;;9.43;3.03;;;;;;;-145.18;100.00;46679.94;5075616;28;20551;-60
2023/06/27 01:17:16;;;;;;;5.67;1.93;;;;;;;-145.18;100.00;46660.41;5075762;28;20081;-60
2023/06/27 01:19:44;;;;;;;8.93;2.40;;;;;;;-145.18;100.00;46660.41;5056723;28;20735;-60
2023/06/27 01:22:15;;;;;;;8.50;2.53;;;;;;;-145.18;100.00;46642.81;5079026;28;20077;-60
2023/06/27 01:24:41;;;;;;;9.43;2.47;;;;;;;-145.18;100.00;46679.94;5094751;28;20032;-60
2023/06/27 01:27:06;;;;;;;11.73;2.83;;;;;;;-145.18;100.00;46679.94;5090634;28;20043;-60
2023/06/27 01:29:32;;;;;;;8.07;2.20;;;;;;;-145.18;100.00;46679.94;5084109;28;20534;-60
2023/06/27 01:32:19;;;;;;;12.33;2.70;;;;;;;-145.18;100.00;46679.94;5074089;28;20047;-60
2023/06/27 01:34:50;;;;;;;10.03;2.53;;;;;;;-145.18;100.00;46660.41;5094476;28;20059;-60
2023/06/27 01:37:28;;;;;;;7.93;2.80;;;;;;;-145.18;100.00;46681.88;5085409;28;20066;-60
2023/06/27 01:39:56;;;;;;;12.07;3.30;;;;;;;-145.18;100.00;46679.94;5094310;28;20047;-60
2023/06/27 01:42:31;;;;;;;7.83;2.77;;;;;;;-145.18;100.00;46642.81;5085961;28;20107;-60
2023/06/27 01:44:57;;;;;;;10.30;2.95;;;;;;;-145.18;100.00;46679.94;5092922;28;20031;-59
2023/06/27 01:47:23;;;;;;;8.60;2.67;;;;;;;-145.18;100.00;46660.41;5088375;28;20105;-59
2023/06/27 01:49:50;;;;;;;8.37;2.40;;;;;;;-145.18;100.00;46660.41;5089370;28;20028;-59
2023/06/27 01:52:15;;;;;;;8.93;2.83;;;;;;;-145.18;100.00;46660.41;5074221;28;20124;-60
2023/06/27 01:54:42;;;;;;;10.10;2.67;;;;;;;-145.18;100.00;46677.97;5091468;28;20036;-59
2023/06/27 01:57:08;;;;;;;16.07;3.97;;;;;;;-145.18;100.00;46660.41;5094450;28;20039;-60
2023/06/27 01:59:34;;;;;;;9.47;3.77;;;;;;;-145.18;100.00;46660.41;5089442;28;20131;-59
2023/06/27 02:01:59;;;;;;;10.07;3.43;;;;;;;-145.18;100.00;46660.41;5085781;28;20062;-59
2023/06/27 02:04:25;;;;;;;14.53;3.90;;;;;;;-145.18;100.00;46642.81;5089826;28;20024;-59
2023/06/27 02:06:50;;;;;;;10.63;4.00;;;;;;;-145.18;100.00;46660.41;5085675;28;20046;-60
2023/06/27 02:09:15;;;;;;;14.43;3.43;;;;;;;-145.18;100.00;46660.41;5080216;28;20055;-60
2023/06/27 02:11:41;;;;;;;8.23;3.03;;;;;;;-145.18;100.00;46660.41;5075782;28;20031;-59
2023/06/27 02:14:06;;;;;;;10.80;2.60;;;;;;;-145.18;100.00;46660.41;5082837;28;20035;-59
2023/06/27 02:16:31;;;;;;;10.47;2.87;;;;;;;-145.18;100.00;46660.41;5091366;28;20035;-59
2023/06/27 02:18:57;;;;;;;11.50;2.43;;;;;;;-145.18;100.00;46660.41;5072772;28;20024;-59
2023/06/27 02:21:22;;;;;;;6.33;2.40;;;;;;;-145.18;100.00;46660.41;5093992;28;20067;-59
2023/06/27 02:23:48;;;;;;;6.87;2.73;;;;;;;-145.18;100.00;46660.41;5074290;28;20054;-59
2023/06/27 02:26:13;;;;;;;8.50;3.07;;;;;;;-145.18;100.00;46679.94;5084748;28;20040;-59
2023/06/27 02:28:38;;;;;;;16.73;2.87;;;;;;;-145.18;100.00;46660.41;5089324;28;20480;-59
2023/06/27 02:31:04;;;;;;;8.00;2.20;;;;;;;-145.18;100.00;46660.41;5073694;28;20040;-60
2023/06/27 02:33:29;;;;;;;13.20;3.90;;;;;;;-145.18;100.00;46660.41;5073602;28;20067;-59
2023/06/27 02:35:55;;;;;;;9.13;2.40;;;;;;;-145.18;100.00;46660.41;5089186;28;20025;-59
2023/06/27 02:38:20;;;;;;;9.50;2.70;;;;;;;-145.18;100.00;46660.41;5089062;28;20103;-59
2023/06/27 02:40:47;;;;;;;12.00;3.27;;;;;;;-145.18;100.00;46660.41;5073349;28;20517;-59
2023/06/27 02:43:12;;;;;;;7.27;2.77;;;;;;;-145.18;100.00;46660.41;5073689;28;20025;-60
2023/06/27 02:45:38;;;;;;;11.73;3.30;;;;;;;-145.18;100.00;46660.41;5055166;28;20036;-59
2023/06/27 02:48:04;;;;;;;10.40;3.53;;;;;;;-145.18;100.00;46660.41;5077531;28;20062;-59
2023/06/27 02:50:29;;;;;;;18.63;3.90;;;;;;;-145.18;100.00;46660.41;5083176;28;20178;-59
2023/06/27 02:52:55;;;;;;;12.17;4.03;;;;;;;-145.18;100.00;46660.41;5073386;28;20028;-60
2023/06/27 02:55:20;;;;;;;19.87;5.90;;;;;;;-145.18;100.00;46660.41;5055682;28;20464;-60
2023/06/27 02:57:46;;;;;;;9.00;4.50;;;;;;;-145.18;100.00;46660.41;5072693;28;20064;-60
2023/06/27 03:00:12;;;;;;;9.60;3.70;;;;;;;-145.18;100.00;46660.41;5073196;28;20025;-61
2023/06/27 03:02:37;;;;;;;10.67;3.90;;;;;;;-145.18;100.00;46660.41;5065996;28;20067;-60
2023/06/27 03:05:02;;;;;;;13.40;4.30;;;;;;;-145.18;100.00;46660.41;5068955;28;20659;-60
2023/06/27 03:07:28;;;;;;;13.50;4.23;;;;;;;-145.18;100.00;46660.41;5081717;28;20508;-60
2023/06/27 03:09:53;;;;;;;19.10;6.57;;;;;;;-145.18;100.00;46660.41;5061221;28;20149;-60
2023/06/27 03:12:19;;;;;;;16.60;6.23;;;;;;;-145.18;100.00;46660.41;5065065;28;21198;-60
2023/06/27 03:14:44;;;;;;;13.03;5.00;;;;;;;-145.18;100.00;46660.41;5072827;28;20031;-60
2023/06/27 03:17:09;;;;;;;8.50;4.33;;;;;;;-145.18;100.00;46660.41;5086326;28;20032;-60
2023/06/27 03:19:35;;;;;;;16.77;5.47;;;;;;;-145.18;100.00;46660.41;5087128;28;20044;-60
2023/06/27 03:22:00;;;;;;;16.10;5.37;;;;;;;-145.18;100.00;46660.41;5087383;28;20039;-60
2023/06/27 03:24:26;;;;;;;18.40;6.10;;;;;;;-145.18;100.00;46660.41;5079183;28;20044;-61
2023/06/27 03:26:51;;;;;;;12.83;4.80;;;;;;;-145.18;100.00;46660.41;5080313;28;20039;-60
2023/06/27 03:29:17;;;;;;;15.70;5.17;;;;;;;-145.18;100.00;46660.41;5081579;28;20075;-60
2023/06/27 03:31:42;;;;;;;18.43;4.67;;;;;;;-145.18;100.00;46660.41;5083073;28;20071;-60
2023/06/27 03:34:07;;;;;;;14.90;4.83;;;;;;;-145.18;100.00;46660.41;5081937;28;20054;-61
2023/06/27 03:36:33;;;;;;;11.47;4.00;;;;;;;-145.18;100.00;46660.41;5081384;28;20175;-61
2023/06/27 03:38:59;;;;;;;14.40;3.00;;;;;;;-145.18;100.00;46660.41;5053309;28;20039;-61
2023/06/27 03:41:25;;;;;;;12.90;3.37;;;;;;;-145.18;100.00;46660.41;5063976;28;20032;-60
2023/06/27 03:43:50;;;;;;;9.47;3.23;;;;;;;-145.18;100.00;46660.41;5082868;28;20111;-61
2023/06/27 03:46:15;;;;;;;9.80;2.90;;;;;;;-145.18;100.00;46660.41;5080929;28;20032;-61
2023/06/27 03:48:41;;;;;;;7.90;2.93;;;;;;;-145.18;100.00;46660.41;5057517;28;20055;-60
2023/06/27 03:51:06;;;;;;;13.77;2.73;;;;;;;-145.18;100.00;46660.41;5072117;28;20032;-61
2023/06/27 03:53:31;;;;;;;8.47;4.03;;;;;;;-145.18;100.00;46660.41;5072018;28;20028;-60
2023/06/27 03:55:57;;;;;;;12.60;3.33;;;;;;;-145.18;100.00;46660.41;5072240;28;20041;-61
2023/06/27 03:58:22;;;;;;;12.87;3.27;;;;;;;-145.18;100.00;46660.41;5069332;28;20547;-60
2023/06/27 04:00:52;;;;;;;19.70;4.00;;;;;;;-145.18;100.00;46660.41;5077261;28;20035;-61
2023/06/27 04:03:18;;;;;;;8.73;3.10;;;;;;;-145.18;100.00;46660.41;5061645;28;20021;-59
2023/06/27 04:05:44;;;;;;;9.50;3.47;;;;;;;-145.18;100.00;46660.41;5071077;28;20028;-59
2023/06/27 04:08:09;;;;;;;15.83;3.30;;;;;;;-145.18;100.00;46660.41;5064554;28;20037;-59
2023/06/27 04:10:35;;;;;;;10.77;3.87;;;;;;;-145.18;100.00;46660.41;5060430;28;20029;-59
2023/06/27 04:13:00;;;;;;;6.37;3.40;;;;;;;-145.18;100.00;46660.41;5073273;28;20065;-59
2023/06/27 04:15:25;;;;;;;13.77;4.87;;;;;;;-145.18;100.00;46660.41;5063611;28;20447;-59
2023/06/27 04:17:51;;;;;;;17.93;7.90;;;;;;;-145.18;100.00;46660.41;5065120;28;20032;-60
2023/06/27 04:20:16;;;;;;;14.90;6.43;;;;;;;-145.18;100.00;46660.41;5067981;28;20028;-59
2023/06/27 04:22:42;;;;;;;18.03;6.70;;;;;;;-145.18;100.00;46660.41;5071121;28;20476;-59
2023/06/27 04:25:10;;;;;;;17.70;7.70;;;;;;;-145.18;100.00;46660.41;5071635;28;20108;-59
2023/06/27 04:27:38;;;;;;;24.03;8.50;;;;;;;-145.18;100.00;46660.41;5066426;28;20055;-59
2023/06/27 04:30:05;;;;;;;18.43;7.83;;;;;;;-145.18;100.00;46660.41;5064112;28;20037;-59
2023/06/27 04:32:33;;;;;;;20.13;9.17;;;;;;;-145.18;100.00;46660.41;5068998;28;20040;-59
2023/06/27 04:34:59;;;;;;;20.27;7.87;;;;;;;-145.18;100.00;46660.41;5072995;28;20378;-59
2023/06/27 04:37:24;;;;;;;17.93;8.20;;;;;;;-145.18;100.00;46660.41;5075848;28;20039;-59
2023/06/27 04:39:51;;;;;;;15.50;6.63;;;;;;;-145.18;100.00;46660.41;5083624;28;20111;-59
2023/06/27 04:42:17;;;;;;;16.37;6.20;;;;;;;-145.18;100.00;46660.41;5061095;28;20039;-59
2023/06/27 04:44:42;;;;;;;13.50;6.07;;;;;;;-145.18;100.00;46660.41;5063208;28;20622;-60
2023/06/27 04:47:07;;;;;;;19.73;5.80;;;;;;;-145.18;100.00;46660.41;5041035;28;20040;-59
2023/06/27 04:49:33;;;;;;;19.57;8.43;;;;;;;-145.18;100.00;46660.41;5075549;28;20059;-59
2023/06/27 04:51:58;;;;;;;18.90;8.10;;;;;;;-145.18;100.00;46660.41;5060767;28;20037;-59
2023/06/27 04:54:23;;;;;;;17.70;6.67;;;;;;;-145.18;100.00;46660.41;5077640;28;20045;-59
2023/06/27 04:56:49;;;;;;;20.43;7.93;;;;;;;-145.18;100.00;46660.41;5063497;28;20028;-59
2023/06/27 04:59:17;;;;;;;14.33;7.33;;;;;;;-145.18;100.00;46660.41;5074053;28;20052;-57
2023/06/27 05:01:42;;;;;;;24.23;7.83;;;;;;;-145.18;100.00;46660.41;5075010;28;20032;-59
2023/06/27 05:04:07;;;;;;;13.77;5.10;;;;;;;-145.18;100.00;46660.41;5037123;28;20040;-59
2023/06/27 05:06:33;;;;;;;12.23;5.33;;;;;;;-145.18;100.00;46660.41;5075253;28;20036;-60
2023/06/27 05:09:01;;;;;;;11.13;4.73;;;;;;;-145.18;100.00;46660.41;5074203;28;20395;-59
2023/06/27 05:11:26;;;;;;;12.17;4.13;;;;;;;-145.18;100.00;46660.41;5067154;28;20496;-59
2023/06/27 05:13:53;;;;;;;12.70;3.83;;;;;;;-145.18;100.00;46660.41;5084219;28;20061;-61
2023/06/27 05:16:18;;;;;;;11.80;3.77;;;;;;;-145.18;100.00;46660.41;5086828;28;20032;-61
2023/06/27 05:18:44;;;;;;;9.73;4.20;;;;;;;-145.18;100.00;46631.09;5084655;28;20119;-60
2023/06/27 05:21:09;;;;;;;11.77;4.03;;;;;;;-145.18;100.00;46631.09;5110689;28;20044;-61
2023/06/27 05:23:35;;;;;;;9.20;4.27;;;;;;;-145.18;100.00;46635.00;5084454;28;20036;-61
2023/06/27 05:26:00;;;;;;;11.23;3.90;;;;;;;-145.18;100.00;46629.13;5089305;28;20372;-61
2023/06/27 05:28:26;;;;;;;9.40;4.07;;;;;;;-145.18;100.00;46636.94;5079186;28;20032;-61
2023/06/27 05:30:51;;;;;;;10.23;4.13;;;;;;;-145.18;100.00;46629.13;5082447;28;20048;-61
2023/06/27 05:33:16;;;;;;;15.23;3.47;;;;;;;-145.18;100.00;46631.09;5081360;28;20052;-61
2023/06/27 05:35:42;;;;;;;10.67;3.43;;;;;;;-145.18;100.00;46629.13;5077701;28;20120;-61
2023/06/27 05:38:07;;;;;;;7.37;2.73;;;;;;;-145.18;100.00;46631.09;5072648;28;20036;-61
2023/06/27 05:40:32;;;;;;;5.80;3.00;;;;;;;-145.18;100.00;46629.13;5080272;28;20036;-61
2023/06/27 05:42:58;;;;;;;9.70;2.87;;;;;;;-145.18;100.00;46629.13;5068448;28;20089;-61
2023/06/27 05:45:23;;;;;;;12.10;2.83;;;;;;;-145.18;100.00;46629.13;5073185;28;20488;-61
2023/06/27 05:47:49;;;;;;;6.47;2.80;;;;;;;-145.18;100.00;46629.13;5075364;28;20052;-60
2023/06/27 05:50:14;;;;;;;11.83;3.20;;;;;;;-145.18;100.00;46633.06;5074957;28;20090;-61
2023/06/27 05:52:39;;;;;;;8.60;2.53;;;;;;;-145.18;100.00;46633.06;5074414;28;20032;-60
2023/06/27 05:55:06;;;;;;;6.67;2.17;;;;;;;-145.18;100.00;46635.00;5073218;28;20071;-60
2023/06/27 05:57:31;;;;;;;4.67;2.03;;;;;;;-145.18;100.00;46638.91;5077007;28;20120;-60
2023/06/27 05:59:56;;;;;;;11.10;2.17;;;;;;;-145.18;100.00;46636.94;5079755;28;20115;-60
2023/06/27 06:02:22;;;;;;;8.63;2.60;;;;;;;-145.18;100.00;46635.00;5063196;28;20044;-60
2023/06/27 06:04:47;;;;;;;7.77;2.03;;;;;;;-145.18;100.00;46644.78;5085253;28;20437;-61
2023/06/27 06:07:12;;;;;;;5.43;2.00;;;;;;;-145.18;100.00;46648.69;5085029;28;20043;-60
2023/06/27 06:09:38;;;;;;;10.20;2.27;;;;;;;-145.18;100.00;46650.63;5074059;28;20575;-61
2023/06/27 06:12:04;;;;;;;7.23;1.87;;;;;;;-145.18;100.00;46652.59;5078112;28;20027;-61
2023/06/27 06:14:29;;;;;;;7.87;1.97;;;;;;;-145.18;100.00;46662.34;5077440;28;20040;-60
2023/06/27 06:16:54;;;;;;;1.87;1.30;;;;;;;-145.18;100.00;46664.31;5082564;28;20147;-61
2023/06/27 06:19:20;;;;;;;4.00;1.33;;;;;;;-145.18;100.00;46662.34;5080819;28;20400;-61
2023/06/27 06:21:45;;;;;;;7.10;1.70;;;;;;;-145.18;100.00;46658.44;5056152;28;20028;-60
2023/06/27 06:24:10;;;;;;;3.37;1.47;;;;;;;-145.18;100.00;46635.00;5074931;28;20104;-59
2023/06/27 06:26:36;;;;;;;6.33;1.50;;;;;;;-145.18;100.00;46611.56;5072765;28;20115;-59
2023/06/27 06:29:03;;;;;;;7.50;2.33;;;;;;;-145.18;100.00;46617.41;5074062;28;20037;-59
2023/06/27 06:31:28;;;;;;;4.40;1.67;;;;;;;-145.18;100.00;46603.75;5079493;28;20521;-59
2023/06/27 06:33:55;;;;;;;3.90;1.53;;;;;;;-145.18;100.00;46535.38;5079356;28;20044;-59
2023/06/27 06:36:21;;;;;;;3.03;1.10;;;;;;;-145.18;100.00;46535.38;5065906;28;20054;-58
2023/06/27 06:38:46;;;;;;;3.30;1.00;;;;;;;-145.18;100.00;46539.28;5086581;28;20115;-59
2023/06/27 06:41:11;;;;;;;5.63;1.07;;;;;;;-145.18;100.00;46545.16;5085945;28;20035;-59
2023/06/27 06:43:37;;;;;;;3.37;1.30;;;;;;;-145.18;100.00;46564.69;5085900;28;20027;-59
2023/06/27 06:46:03;;;;;;;2.70;1.27;;;;;;;-145.18;100.00;46552.97;5066982;28;20036;-59
2023/06/27 06:48:29;;;;;;;5.63;1.30;;;;;;;-145.18;100.00;46543.19;5079064;28;20032;-59
2023/06/27 06:50:54;;;;;;;5.60;1.50;;;;;;;-145.18;100.00;46554.91;5078036;28;20085;-59
2023/06/27 06:53:20;;;;;;;6.63;1.60;;;;;;;-145.18;100.00;46564.69;5092996;28;20032;-59
2023/06/27 06:55:46;;;;;;;3.93;1.40;;;;;;;-145.18;100.00;46551.00;5092533;28;20052;-59
2023/06/27 06:58:11;;;;;;;4.00;1.50;;;;;;;-145.18;100.00;46566.63;5086417;28;20027;-59
2023/06/27 07:00:37;;;;;;;4.10;1.27;;;;;;;-145.18;100.00;46556.88;5072547;28;20040;-59
2023/06/27 07:03:08;;;;;;;5.13;1.50;;;;;;;-145.18;100.00;46547.09;5054814;28;20024;-59
2023/06/27 07:05:35;;;;;;;6.23;1.57;;;;;;;-145.18;100.00;46543.19;5066959;28;20061;-59
2023/06/27 07:08:01;;;;;;;5.17;1.63;;;;;;;-145.18;100.00;46543.19;5072564;28;20499;-59
2023/06/27 07:10:26;;;;;;;8.53;1.87;;;;;;;-145.18;100.00;46564.69;5055742;28;20036;-59
2023/06/27 07:12:51;;;;;;;5.80;2.00;;;;;;;-145.18;100.00;46541.25;5086349;28;20119;-59
2023/06/27 07:15:17;;;;;;;4.90;1.70;;;;;;;-145.18;100.00;46551.00;5070026;28;20032;-59
2023/06/27 07:17:43;;;;;;;3.73;1.40;;;;;;;-145.18;100.00;46547.09;5074224;28;20033;-59
2023/06/27 07:20:09;;;;;;;4.57;1.47;;;;;;;-145.18;100.00;46576.41;5072065;28;20039;-59
2023/06/27 07:22:34;;;;;;;7.07;1.37;;;;;;;-145.18;100.00;46545.16;5061967;28;20036;-59
2023/06/27 07:25:00;;;;;;;3.07;1.40;;;;;;;-145.18;100.00;46539.28;5080035;28;20073;-59
2023/06/27 07:27:25;;;;;;;2.13;1.30;;;;;;;-145.18;100.00;46574.44;5071921;28;20773;-59
2023/06/27 07:29:50;;;;;;;4.17;1.33;;;;;;;-145.18;100.00;46551.00;5070654;28;20043;-59
2023/06/27 07:32:16;;;;;;;2.93;1.30;;;;;;;-145.18;100.00;46662.34;5076888;28;20052;-60
2023/06/27 07:34:41;;;;;;;10.83;1.10;;;;;;;-145.18;100.00;46789.31;5074977;28;20051;-59
2023/06/27 07:37:07;;;;;;;4.37;1.27;;;;;;;-145.18;100.00;46863.53;5077083;28;20056;-59
2023/06/27 07:39:32;;;;;;;3.53;1.13;;;;;;;-145.18;100.00;46795.19;5076543;28;20790;-59
2023/06/27 07:41:58;;;;;;;3.30;1.37;;;;;;;-145.18;100.00;46898.72;5076888;28;20430;-59
2023/06/27 07:44:24;;;;;;;2.27;1.00;;;;;;;-145.18;100.00;47158.53;5083784;28;20066;-59
2023/06/27 07:46:50;;;;;;;4.13;1.30;;;;;;;-145.18;100.00;46650.63;5074128;28;20033;-60
2023/06/27 07:49:15;;;;;;;5.40;1.27;;;;;;;-145.18;100.00;47068.66;5082705;28;20073;-59
2023/06/27 07:51:41;;;;;;;3.37;1.10;;;;;;;-145.18;100.00;47168.28;5071485;28;20037;-59
2023/06/27 07:54:07;;;;;;;2.53;1.23;;;;;;;-145.18;100.00;47164.38;5071789;28;20040;-59
2023/06/27 07:56:32;;;;;;;2.83;1.20;;;;;;;-145.18;100.00;47189.78;5072465;28;20657;-59
2023/06/27 07:58:59;;;;;;;5.77;1.50;;;;;;;-145.18;100.00;47185.88;5072810;28;20476;-60
2023/06/27 08:01:25;;;;;;;2.90;1.50;;;;;;;-145.18;100.00;47183.94;5072558;28;20020;-60
2023/06/27 08:03:50;;;;;;;4.23;0.97;;;;;;;-145.18;100.00;47156.56;5076935;28;20035;-59
2023/06/27 08:06:16;;;;;;;2.93;1.17;;;;;;;-145.18;100.00;47123.38;5079683;28;20040;-59
2023/06/27 08:08:41;;;;;;;1.37;0.70;;;;;;;-145.18;100.00;47129.22;5053015;28;20488;-60
2023/06/27 08:11:07;;;;;;;4.07;1.23;;;;;;;-145.18;100.00;47117.50;5074601;28;20029;-59
2023/06/27 08:13:32;;;;;;;6.70;1.00;;;;;;;-145.18;100.00;47125.31;5078743;28;20364;-59
2023/06/27 08:15:57;;;;;;;2.23;1.07;;;;;;;-145.18;100.00;47140.94;5075570;28;20025;-59
2023/06/27 08:18:23;;;;;;;4.67;1.00;;;;;;;-145.18;100.00;47140.94;5076856;28;20028;-59
2023/06/27 08:20:48;;;;;;;3.50;1.13;;;;;;;-145.18;100.00;47144.84;5074030;28;20036;-59
2023/06/27 08:23:14;;;;;;;2.90;1.10;;;;;;;-145.18;100.00;47137.03;5058549;28;20026;-59
2023/06/27 08:25:39;;;;;;;2.27;0.80;;;;;;;-145.18;100.00;47115.56;5076989;28;20043;-58
2023/06/27 08:28:05;;;;;;;4.90;0.93;;;;;;;-145.18;100.00;47127.28;5072629;28;20090;-59
2023/06/27 08:30:31;;;;;;;2.20;0.90;;;;;;;-145.18;100.00;47144.84;5069754;28;20103;-59
2023/06/27 08:32:56;;;;;;;3.70;1.07;;;;;;;-145.18;100.00;47139.00;5087390;28;20087;-59
2023/06/27 08:35:22;;;;;;;1.63;0.97;;;;;;;-145.18;100.00;47121.41;5077669;28;20055;-60
2023/06/27 08:37:47;;;;;;;1.80;1.10;;;;;;;-145.18;100.00;47123.38;5078103;28;20060;-59
2023/06/27 08:40:23;;;;;;;4.30;1.00;;;;;;;-145.18;100.00;47144.84;5062611;28;20060;-59
2023/06/27 08:42:48;;;;;;;2.00;1.10;;;;;;;-145.18;100.00;47127.28;5070818;28;20035;-59
2023/06/27 08:45:14;;;;;;;2.50;1.10;;;;;;;-145.18;100.00;47139.00;5071576;28;20032;-59
2023/06/27 08:47:46;;;;;;;5.13;1.10;;;;;;;-145.18;100.00;47148.75;5071481;28;20110;-59
2023/06/27 08:50:13;;;;;;;2.93;0.90;;;;;;;-145.18;100.00;47162.44;5065214;28;20395;-60
2023/06/27 08:52:54;;;;;;;4.33;1.23;;;;;;;-145.18;100.00;47121.41;5071798;28;20112;-59
2023/06/27 08:55:23;;;;;;;3.57;1.40;;;;;;;-145.18;100.00;47115.56;5069446;28;20475;-59
2023/06/27 08:57:49;;;;;;;2.40;1.00;;;;;;;-145.18;100.00;47105.78;5080914;28;20090;-59
2023/06/27 09:00:21;;;;;;;1.60;1.00;;;;;;;-145.18;100.00;47144.84;5075068;28;20023;-59
2023/06/27 09:02:48;;;;;;;4.67;1.20;;;;;;;-145.18;100.00;47152.66;5078090;28;20051;-59
2023/06/27 09:05:15;;;;;;;2.37;1.27;;;;;;;-145.18;100.00;47129.22;5082611;28;20396;-59
2023/06/27 09:07:41;;;;;;;3.00;1.13;;;;;;;-145.18;100.00;47123.38;5084551;28;20039;-59
2023/06/27 09:10:08;;;;;;;4.90;1.27;;;;;;;-145.18;100.00;47105.78;5079178;28;20032;-59
2023/06/27 09:12:34;;;;;;;5.97;1.40;;;;;;;-145.18;100.00;47105.78;5036769;28;20190;-59
2023/06/27 09:14:59;;;;;;;7.07;1.17;;;;;;;-145.18;100.00;47109.69;5053619;28;20060;-59
2023/06/27 09:17:25;;;;;;;9.80;1.57;;;;;;;-145.18;100.00;47103.81;5070838;28;20052;-59
2023/06/27 09:19:50;;;;;;;2.90;0.90;;;;;;;-145.18;100.00;47090.16;5087599;28;20051;-58
2023/06/27 09:22:18;;;;;;;1.37;1.00;;;;;;;-145.18;100.00;47094.06;5078482;28;20052;-59
2023/06/27 09:24:44;;;;;;;7.47;1.40;;;;;;;-145.18;100.00;47105.78;5080179;28;20097;-59
2023/06/27 09:27:30;;;;;;;1.80;0.90;;;;;;;-145.18;100.00;47096.00;5076131;28;20536;-59
2023/06/27 09:30:02;;;;;;;3.63;1.13;;;;;;;-145.18;100.00;47092.09;5077247;28;20029;-59
2023/06/27 09:32:28;;;;;;;6.57;1.20;;;;;;;-145.18;100.00;47094.06;5074476;28;20056;-59
2023/06/27 09:34:54;;;;;;;3.63;1.10;;;;;;;-145.18;100.00;47086.25;5060093;28;20099;-58
2023/06/27 09:37:20;;;;;;;4.30;1.40;;;;;;;-145.18;100.00;47094.06;5074995;28;20029;-59
2023/06/27 09:39:45;;;;;;;4.67;1.10;;;;;;;-145.18;100.00;47086.25;5081158;28;20043;-59
2023/06/27 09:42:11;;;;;;;4.80;1.00;;;;;;;-145.18;100.00;47070.63;5060131;28;20094;-59
2023/06/27 09:44:36;;;;;;;7.10;1.17;;;;;;;-145.18;100.00;47078.44;5055618;28;20044;-58
2023/06/27 09:47:02;;;;;;;2.40;1.07;;;;;;;-145.18;100.00;47076.47;5080912;28;20507;-59
2023/06/27 09:49:29;;;;;;;3.10;1.03;;;;;;;-145.18;100.00;47080.38;5099043;28;20497;-59
2023/06/27 09:51:55;;;;;;;5.60;1.50;;;;;;;-145.18;100.00;47068.66;5082485;28;20035;-59
2023/06/27 09:54:22;;;;;;;9.40;1.60;;;;;;;-145.18;100.00;47043.28;5088764;28;20029;-59
2023/06/27 09:56:51;;;;;;;8.40;1.10;;;;;;;-145.18;100.00;47027.63;5074400;28;20477;-59
2023/06/27 09:59:19;;;;;;;5.47;1.00;;;;;;;-145.18;100.00;47060.84;5075060;28;20032;-59
2023/06/27 10:01:45;;;;;;;4.20;1.00;;;;;;;-145.18;100.00;47064.75;5074410;28;20115;-59
2023/06/27 10:04:10;;;;;;;3.43;1.20;;;;;;;-145.18;100.00;47058.91;5074252;28;20103;-59
2023/06/27 10:06:37;;;;;;;3.63;1.00;;;;;;;-145.18;100.00;47051.09;5073874;28;20161;-59
2023/06/27 10:09:03;;;;;;;3.37;0.90;;;;;;;-145.18;100.00;47033.50;5074066;28;20039;-59
2023/06/27 10:11:29;;;;;;;5.83;1.47;;;;;;;-145.18;100.00;47047.19;5067309;28;20033;-59
2023/06/27 10:13:55;;;;;;;7.17;1.13;;;;;;;-145.18;100.00;47037.41;5069226;28;20052;-59
2023/06/27 10:16:21;;;;;;;2.30;1.00;;;;;;;-145.18;100.00;47027.63;5092092;28;20069;-60
2023/06/27 10:18:49;;;;;;;3.63;1.00;;;;;;;-145.18;100.00;47037.41;5086369;28;20081;-59
2023/06/27 10:21:16;;;;;;;3.37;1.10;;;;;;;-145.18;100.00;47031.53;5085123;28;20111;-59
2023/06/27 10:23:45;;;;;;;2.70;1.00;;;;;;;-145.18;100.00;47025.69;5073788;28;20033;-59
2023/06/27 10:26:10;;;;;;;6.07;1.30;;;;;;;-145.18;100.00;47043.28;5073772;28;20036;-59
2023/06/27 10:28:36;;;;;;;1.50;0.90;;;;;;;-145.18;100.00;47037.41;5073068;28;20032;-59
2023/06/27 10:31:04;;;;;;;3.13;1.10;;;;;;;-145.18;100.00;47041.31;5072920;28;20111;-59
2023/06/27 10:33:36;;;;;;;4.50;1.10;;;;;;;-145.18;100.00;47015.91;5072442;28;20061;-59
2023/06/27 10:36:04;;;;;;;4.27;1.20;;;;;;;-145.18;100.00;47043.28;5081084;28;20039;-59
2023/06/27 10:38:35;;;;;;;5.57;1.10;;;;;;;-145.18;100.00;47025.69;5077846;28;20490;-59
2023/06/27 10:41:06;;;;;;;2.27;1.20;;;;;;;-145.18;100.00;47012.00;5074182;28;20052;-59
2023/06/27 10:44:08;;;;;;;1.93;0.90;;;;;;;-145.18;100.00;47012.00;5073210;28;20033;-59
2023/06/27 10:46:33;;;;;;;2.57;0.90;;;;;;;-145.18;100.00;47041.31;5059208;28;20051;-59
2023/06/27 10:49:04;;;;;;;3.90;1.00;;;;;;;-145.18;100.00;47027.63;5085612;28;20111;-59
2023/06/27 10:51:43;;;;;;;10.37;1.10;;;;;;;-145.18;100.00;47051.09;5075017;28;20052;-59
2023/06/27 10:54:09;;;;;;;2.00;1.20;;;;;;;-145.18;100.00;47060.84;5073149;28;20564;-59
2023/06/27 10:56:39;;;;;;;3.27;1.00;;;;;;;-145.18;100.00;47068.66;5073249;28;20111;-59
2023/06/27 10:59:09;;;;;;;7.13;1.77;;;;;;;-145.18;100.00;47062.81;5072670;28;20120;-60
2023/06/27 11:01:35;;;;;;;3.53;1.30;;;;;;;-145.18;100.00;47086.25;5072773;28;20119;-59
2023/06/27 11:04:43;;;;;;;4.73;1.37;;;;;;;-145.18;100.00;47078.44;5071615;28;20468;-59